Time;durP1;ratioP1;P1;durP2;ratioP2;P2;SDS_P1;SDS_P2;PMS_P1;PMS_P2;Temp;Humidity;BMP_temperature;BMP_pressure;BME280_temperature;BME280_humidity;BME280_pressure;Samples;Min_cycle;Max_cycle;Signal;HPM_P1;HPM_P2
2022/09/26 00:01:48;;;;;;;45.10;8.38;;;;;;;16.97;79.49;100611.81;4979724;28;20513;-85
2022/09/26 00:04:23;;;;;;;33.05;9.20;;;;;;;17.02;79.63;100620.31;4984779;28;20043;-84
2022/09/26 00:06:49;;;;;;;35.33;10.10;;;;;;;16.77;79.54;100602.25;4978532;28;20054;-86
2022/09/26 00:09:16;;;;;;;27.33;8.68;;;;;;;16.58;79.71;100561.78;4978011;28;20031;-84
2022/09/26 00:11:43;;;;;;;18.02;9.07;;;;;;;16.70;79.84;100582.19;4977679;28;20034;-84
2022/09/26 00:14:17;;;;;;;31.67;10.48;;;;;;;16.99;79.92;100647.84;4977508;28;20030;-85
2022/09/26 00:16:43;;;;;;;24.08;9.52;;;;;;;16.40;79.85;100550.16;4979585;28;20113;-83
2022/09/26 00:19:08;;;;;;;16.00;8.43;;;;;;;16.82;80.40;100619.75;4979408;28;20082;-83
2022/09/26 00:21:34;;;;;;;15.13;8.35;;;;;;;16.80;80.29;100608.22;4979244;28;20030;-85
2022/09/26 00:24:00;;;;;;;13.48;7.80;;;;;;;16.50;80.11;100578.03;4979047;28;20027;-83
2022/09/26 00:26:29;;;;;;;15.82;8.27;;;;;;;16.20;80.11;100527.88;4977601;28;20059;-82
2022/09/26 00:28:55;;;;;;;22.73;8.65;;;;;;;16.33;80.23;100537.25;4977250;28;20474;-82
2022/09/26 00:31:29;;;;;;;21.98;8.52;;;;;;;16.35;80.03;100547.94;4979058;28;20472;-83
2022/09/26 00:33:55;;;;;;;20.67;8.13;;;;;;;16.40;79.91;100550.16;4978121;28;20030;-85
2022/09/26 00:36:22;;;;;;;21.30;7.72;;;;;;;16.52;79.78;100573.28;4979665;28;20028;-84
2022/09/26 00:38:47;;;;;;;19.38;8.57;;;;;;;16.64;79.74;100591.00;4967584;28;20026;-83
2022/09/26 00:41:15;;;;;;;27.10;10.10;;;;;;;16.40;79.19;100545.59;4980020;28;20105;-84
2022/09/26 00:43:48;;;;;;;142.65;18.77;;;;;;;16.23;79.16;100519.41;4976212;28;20133;-86
2022/09/26 00:46:17;;;;;;;32.72;9.70;;;;;;;16.85;78.54;100624.84;4974740;28;20117;-84
2022/09/26 00:48:47;;;;;;;18.88;8.73;;;;;;;16.76;78.26;100620.41;4976816;28;20027;-86
2022/09/26 00:51:13;;;;;;;19.67;8.10;;;;;;;16.63;78.28;100606.47;4977711;28;20034;-83
2022/09/26 00:53:44;;;;;;;29.45;9.25;;;;;;;16.77;78.05;100627.56;4978239;28;20406;-83
2022/09/26 00:56:15;;;;;;;14.90;7.72;;;;;;;16.39;77.80;100567.47;4978154;28;20030;-83
2022/09/26 00:58:46;;;;;;;20.02;8.60;;;;;;;16.52;77.36;100600.44;4978358;28;20038;-83
2022/09/26 01:01:13;;;;;;;14.88;7.95;;;;;;;16.11;77.52;100537.84;4976870;28;20085;-83
2022/09/26 01:03:41;;;;;;;19.20;7.90;;;;;;;16.26;77.20;100554.34;4980372;28;20022;-86
2022/09/26 01:06:07;;;;;;;28.85;9.15;;;;;;;16.34;77.42;100578.81;4995460;28;20035;-83
2022/09/26 01:08:48;;;;;;;15.90;7.63;;;;;;;16.13;76.80;100560.22;4996097;28;20007;-88
2022/09/26 01:11:14;;;;;;;13.80;8.32;;;;;;;16.02;76.62;100551.53;4992556;28;20053;-83
2022/09/26 01:13:42;;;;;;;24.88;8.77;;;;;;;15.68;76.49;100494.56;4978145;28;20026;-84
2022/09/26 01:16:07;;;;;;;16.30;8.10;;;;;;;16.22;76.44;100593.69;4979068;28;20394;-83
2022/09/26 01:18:34;;;;;;;20.95;8.05;;;;;;;15.99;76.41;100558.09;4978257;28;20026;-85
2022/09/26 01:21:12;;;;;;;13.07;7.88;;;;;;;16.02;76.45;100557.81;4977256;28;20034;-84
2022/09/26 01:24:11;;;;;;;24.30;8.52;;;;;;;15.46;75.87;100463.38;4978125;28;20027;-86
2022/09/26 01:26:44;;;;;;;34.50;10.07;;;;;;;16.33;75.63;100612.38;4944357;28;20112;-83
2022/09/26 01:29:30;;;;;;;42.15;8.73;;;;;;;16.30;75.56;100607.28;4981882;28;20027;-83
2022/09/26 01:35:09;;;;;;;27.67;8.90;;;;;;;16.28;74.98;100604.75;4993799;28;20109;-86
2022/09/26 01:38:04;;;;;;;29.13;9.35;;;;;;;16.29;74.87;100602.88;4996226;28;20054;-85
2022/09/26 01:40:44;;;;;;;15.70;7.65;;;;;;;15.75;74.36;100528.13;4989449;28;20111;-84
2022/09/26 01:43:25;;;;;;;12.70;7.97;;;;;;;16.24;73.79;100595.22;4979774;28;20502;-83
2022/09/26 01:46:32;;;;;;;17.33;9.18;;;;;;;16.17;73.54;100591.47;4978719;28;20443;-85
2022/09/26 01:49:15;;;;;;;54.00;10.23;;;;;;;16.01;73.94;100585.94;4979609;28;20034;-82
2022/09/26 01:52:01;;;;;;;21.25;9.10;;;;;;;15.89;74.15;100589.94;4982489;28;20500;-85
2022/09/26 01:54:43;;;;;;;35.10;9.40;;;;;;;15.99;74.32;100609.66;4977099;28;20026;-84
2022/09/26 01:57:14;;;;;;;14.93;8.57;;;;;;;15.44;74.04;100524.19;4976933;28;20026;-83
2022/09/26 01:59:47;;;;;;;13.77;8.13;;;;;;;15.67;74.07;100555.22;4977602;28;20026;-87
2022/09/26 02:02:20;;;;;;;16.85;8.80;;;;;;;15.83;73.49;100577.03;4977309;28;20027;-85
2022/09/26 02:04:52;;;;;;;15.40;7.55;;;;;;;15.59;73.38;100538.91;4986552;28;20039;-86
2022/09/26 02:07:20;;;;;;;18.35;7.50;;;;;;;15.93;73.35;100598.59;4974119;28;20030;-85
2022/09/26 02:09:51;;;;;;;13.65;8.15;;;;;;;15.54;72.46;100527.66;4988777;28;20491;-83
2022/09/26 02:12:25;;;;;;;27.67;8.48;;;;;;;15.54;72.00;100535.78;4960569;28;20066;-83
2022/09/26 02:14:56;;;;;;;20.92;7.35;;;;;;;15.29;72.02;100501.38;4979916;28;20031;-83
2022/09/26 02:17:29;;;;;;;21.35;7.18;;;;;;;15.44;71.47;100537.75;4988086;28;20034;-84
2022/09/26 02:20:01;;;;;;;35.00;9.20;;;;;;;15.09;71.54;100481.75;4989269;28;20023;-83
2022/09/26 02:22:33;;;;;;;29.67;8.10;;;;;;;15.09;71.54;100488.00;4985665;28;20042;-85
2022/09/26 02:25:00;;;;;;;25.95;8.38;;;;;;;15.59;71.63;100576.84;4992074;28;20043;-84
2022/09/26 02:27:26;;;;;;;22.92;8.85;;;;;;;15.53;71.87;100588.31;4990073;28;20034;-82
2022/09/26 02:29:53;;;;;;;44.63;10.85;;;;;;;14.63;71.87;100432.28;4937430;28;20045;-82
2022/09/26 02:32:24;;;;;;;30.83;8.85;;;;;;;15.48;71.73;100590.63;4985975;28;20027;-83
2022/09/26 02:34:50;;;;;;;37.28;9.45;;;;;;;15.25;71.52;100544.19;4991670;28;20038;-85
2022/09/26 02:37:17;;;;;;;21.60;8.02;;;;;;;15.37;71.19;100566.47;4976812;28;20023;-83
2022/09/26 02:39:45;;;;;;;26.13;8.77;;;;;;;15.29;70.68;100555.56;4978833;28;20031;-83
2022/09/26 02:42:20;;;;;;;30.17;8.40;;;;;;;15.42;70.75;100585.81;4985861;28;20035;-85
2022/09/26 02:45:18;;;;;;;26.92;8.20;;;;;;;15.42;70.91;100585.81;4970644;28;20039;-83
2022/09/26 02:48:19;;;;;;;17.33;7.60;;;;;;;15.32;71.12;100577.75;4986499;28;20066;-83
2022/09/26 02:51:23;;;;;;;17.17;7.88;;;;;;;15.32;70.96;100585.06;4978046;28;20043;-84
2022/09/26 02:54:03;;;;;;;17.17;6.97;;;;;;;15.05;70.43;100551.63;4897404;29;20544;-84
2022/09/26 02:56:37;;;;;;;15.23;7.38;;;;;;;15.05;70.47;100551.63;4897541;29;20036;-83
2022/09/26 02:59:21;;;;;;;30.00;8.73;;;;;;;15.15;70.12;100584.91;4899030;29;20103;-84
2022/09/26 03:01:59;;;;;;;25.05;8.30;;;;;;;15.19;70.02;100586.31;4897687;29;20044;-83
2022/09/26 03:04:47;;;;;;;32.88;8.75;;;;;;;15.15;70.07;100574.06;4873387;29;20040;-82
2022/09/26 03:07:20;;;;;;;30.10;8.18;;;;;;;14.79;69.88;100515.50;4906097;29;20041;-83
2022/09/26 03:09:48;;;;;;;21.15;7.70;;;;;;;14.70;69.66;100503.75;4906554;29;20032;-84
2022/09/26 03:12:15;;;;;;;13.43;7.10;;;;;;;15.08;69.57;100573.00;4900535;29;20103;-82
2022/09/26 03:14:43;;;;;;;16.50;7.30;;;;;;;14.69;69.58;100502.03;4886819;29;20449;-83
2022/09/26 03:17:09;;;;;;;23.35;8.35;;;;;;;14.68;69.59;100516.56;4902999;29;20137;-85
2022/09/26 03:19:49;;;;;;;24.83;8.75;;;;;;;14.34;69.45;100452.47;4884762;29;20043;-82
2022/09/26 03:22:15;;;;;;;13.88;7.30;;;;;;;14.39;69.20;100461.81;4900769;29;20044;-84
2022/09/26 03:24:42;;;;;;;32.72;8.93;;;;;;;14.70;68.91;100497.47;4943815;28;20057;-84
2022/09/26 03:27:11;;;;;;;20.27;8.35;;;;;;;14.75;68.39;100505.13;4964191;28;20038;-82
2022/09/26 03:29:37;;;;;;;19.00;8.18;;;;;;;14.13;67.68;100406.72;4965076;28;20057;-86
2022/09/26 03:32:04;;;;;;;26.15;7.07;;;;;;;14.90;68.09;100536.94;4978672;28;20026;-82
2022/09/26 03:34:30;;;;;;;20.60;7.72;;;;;;;14.49;67.71;100464.47;4977676;28;20070;-85
2022/09/26 03:36:58;;;;;;;37.10;11.75;;;;;;;14.41;67.16;100450.81;4984504;28;20034;-84
2022/09/26 03:39:24;;;;;;;33.78;9.82;;;;;;;15.02;67.03;100568.19;4991488;28;20078;-85
2022/09/26 03:41:49;;;;;;;25.95;8.65;;;;;;;14.34;66.64;100449.75;4980136;28;20471;-80
2022/09/26 03:44:15;;;;;;;81.97;10.82;;;;;;;14.50;66.75;100475.13;4978029;28;20034;-81
2022/09/26 03:46:41;;;;;;;41.03;10.88;;;;;;;14.49;66.60;100473.44;4986249;28;20053;-85
2022/09/26 03:49:07;;;;;;;66.63;11.70;;;;;;;14.67;66.63;100495.09;4969574;28;20516;-86
2022/09/26 03:51:33;;;;;;;31.05;9.63;;;;;;;14.75;66.42;100514.09;4987409;28;20031;-82
2022/09/26 03:53:58;;;;;;;83.70;11.60;;;;;;;14.55;66.19;100485.50;4997642;28;20031;-82
2022/09/26 03:56:25;;;;;;;55.63;12.15;;;;;;;14.50;66.21;100469.69;4999564;28;20058;-87
2022/09/26 03:58:51;;;;;;;65.15;12.07;;;;;;;14.95;66.01;100544.59;4999255;28;20026;-84
2022/09/26 04:01:20;;;;;;;84.93;12.60;;;;;;;14.92;66.12;100545.75;4984981;28;20088;-85
2022/09/26 04:03:48;;;;;;;277.08;23.35;;;;;;;14.92;66.48;100534.91;4981545;28;20121;-81
2022/09/26 04:06:18;;;;;;;132.07;14.25;;;;;;;14.81;66.33;100520.75;4976277;28;20031;-79
2022/09/26 04:08:45;;;;;;;156.45;17.00;;;;;;;14.73;66.24;100507.16;4976531;28;20038;-79
2022/09/26 04:11:13;;;;;;;185.05;22.27;;;;;;;14.71;66.27;100505.44;4978606;28;20039;-81
2022/09/26 04:13:39;;;;;;;128.63;16.45;;;;;;;14.62;65.97;100494.69;4979407;28;20107;-80
2022/09/26 04:16:06;;;;;;;190.32;19.25;;;;;;;14.69;65.86;100501.19;4977976;28;20074;-80
2022/09/26 04:18:33;;;;;;;131.63;14.68;;;;;;;14.58;66.24;100487.88;4981373;28;20065;-77
2022/09/26 04:21:07;;;;;;;83.32;12.93;;;;;;;14.82;65.97;100527.88;4977936;28;20042;-81
2022/09/26 04:23:36;;;;;;;193.25;20.27;;;;;;;14.85;65.62;100528.44;4977307;28;20553;-82
2022/09/26 04:26:08;;;;;;;138.45;15.65;;;;;;;14.79;65.87;100504.69;4977217;28;20050;-79
2022/09/26 04:28:34;;;;;;;98.40;13.75;;;;;;;14.82;65.56;100517.91;4978765;28;20022;-83
2022/09/26 04:31:01;;;;;;;218.98;24.20;;;;;;;14.86;64.75;100530.09;4978659;28;20141;-84
2022/09/26 04:33:27;;;;;;;67.47;14.75;;;;;;;14.66;63.80;100475.28;4977955;28;20399;-84
2022/09/26 04:35:53;;;;;;;123.63;19.30;;;;;;;14.71;64.32;100483.78;4958977;28;20033;-84
2022/09/26 04:38:19;;;;;;;406.65;38.58;;;;;;;14.61;63.94;100471.34;4975773;28;20490;-83
2022/09/26 04:40:44;;;;;;;249.32;25.67;;;;;;;14.83;63.94;100492.50;4976272;28;20130;-87
2022/09/26 04:43:10;;;;;;;818.17;77.07;;;;;;;14.95;63.68;100507.50;4975443;28;20034;-84
2022/09/26 04:45:39;;;;;;;238.43;23.20;;;;;;;14.96;63.39;100506.50;4978165;28;20031;-83
2022/09/26 04:48:04;;;;;;;240.25;22.02;;;;;;;14.86;63.54;100481.38;4964014;28;20028;-86
2022/09/26 04:50:29;;;;;;;830.75;77.03;;;;;;;14.91;63.41;100475.50;4939549;29;20087;-86
2022/09/26 04:52:55;;;;;;;190.65;20.10;;;;;;;15.02;63.16;100508.59;4961784;28;20087;-88
2022/09/26 04:55:20;;;;;;;432.33;34.97;;;;;;;15.08;62.61;100483.59;4959389;28;20031;-89
2022/09/26 04:57:48;;;;;;;193.98;20.52;;;;;;;14.69;62.22;100404.59;4967698;23;20055;-85
2022/09/26 05:00:14;;;;;;;199.20;19.23;;;;;;;15.15;62.20;100486.53;4958694;28;20062;-88
2022/09/26 05:02:46;;;;;;;229.85;21.98;;;;;;;15.14;62.38;100473.97;4957397;29;20038;-87
2022/09/26 05:05:11;;;;;;;212.73;19.50;;;;;;;15.11;62.88;100461.59;4960678;29;20031;-86
2022/09/26 05:07:41;;;;;;;508.52;46.55;;;;;;;15.51;62.91;100519.84;4974046;28;20054;-81
2022/09/26 05:10:09;;;;;;;210.50;21.02;;;;;;;15.67;62.73;100530.81;4974690;28;20035;-86
2022/09/26 05:12:35;;;;;;;193.25;18.48;;;;;;;15.76;62.55;100527.13;4962783;28;20049;-88
2022/09/26 05:15:01;;;;;;;179.30;19.35;;;;;;;15.61;62.89;100483.50;4955317;28;20529;-86
2022/09/26 05:17:26;;;;;;;122.00;17.27;;;;;;;15.66;62.10;100481.16;4973609;28;20099;-82
2022/09/26 05:19:52;;;;;;;126.10;15.50;;;;;;;15.39;62.37;100416.25;4956726;28;20047;-86
2022/09/26 05:22:17;;;;;;;102.25;14.13;;;;;;;15.84;62.20;100467.50;4956040;28;20031;-83
2022/09/26 05:27:27;;;;;;;96.88;18.90;;;;;;;16.30;61.49;100507.72;4952741;28;20702;-85
2022/09/26 05:29:54;;;;;;;95.82;16.42;;;;;;;16.43;61.02;100518.09;4954193;28;20039;-84
2022/09/26 05:32:20;;;;;;;78.15;12.30;;;;;;;16.58;59.93;100510.19;4952955;28;20031;-83
2022/09/26 05:34:45;;;;;;;66.38;17.10;;;;;;;16.68;59.78;100502.75;4958873;28;20038;-86
2022/09/26 05:37:11;;;;;;;56.65;12.65;;;;;;;16.53;59.60;100455.53;4955119;28;20035;-82
2022/09/26 05:42:20;;;;;;;22.80;8.00;;;;;;;17.05;56.86;100519.44;4953196;28;20035;-83
2022/09/26 05:44:46;;;;;;;50.17;12.85;;;;;;;17.19;56.33;100507.03;4953383;28;20031;-84
2022/09/26 05:47:11;;;;;;;19.10;6.65;;;;;;;17.36;56.07;100514.19;4952401;28;20035;-84
2022/09/26 05:49:37;;;;;;;160.35;24.92;;;;;;;17.48;54.56;100510.09;4960586;28;20093;-86
2022/09/26 05:52:03;;;;;;;61.25;12.15;;;;;;;17.64;54.42;100514.69;4958188;28;20026;-88
2022/09/26 05:54:28;;;;;;;88.82;14.57;;;;;;;17.83;53.67;100522.44;4972687;28;20042;-83
2022/09/26 05:56:53;;;;;;;1999.90;505.95;;;;;;;17.97;52.26;100510.84;4976707;28;20153;-86
2022/09/26 05:59:19;;;;;;;1999.90;621.25;;;;;;;17.82;51.88;100471.78;4974384;28;20682;-85
2022/09/26 06:01:45;;;;;;;36.35;10.85;;;;;;;18.21;51.40;100513.50;4973331;28;20023;-85
2022/09/26 06:04:11;;;;;;;172.65;20.15;;;;;;;18.33;50.48;100513.94;4972704;28;20045;-84
2022/09/26 06:06:36;;;;;;;84.97;11.85;;;;;;;18.43;50.10;100511.84;4975878;28;20027;-89
2022/09/26 06:09:02;;;;;;;310.42;34.25;;;;;;;18.56;49.28;100512.13;4967267;28;20081;-90
2022/09/26 06:11:29;;;;;;;802.88;122.30;;;;;;;18.42;48.73;100470.16;4985862;28;20377;-89
2022/09/26 06:13:56;;;;;;;246.35;32.05;;;;;;;18.48;48.40;100463.13;4985175;28;20026;-90
2022/09/26 06:16:22;;;;;;;110.03;35.95;;;;;;;18.79;47.87;100504.84;4980941;28;20034;-84
2022/09/26 06:18:49;;;;;;;69.28;27.58;;;;;;;19.01;48.45;100511.34;4974109;28;20058;-89
2022/09/26 06:21:17;;;;;;;19.50;8.57;;;;;;;19.05;47.02;100509.94;4982780;28;20035;-82
2022/09/26 06:23:43;;;;;;;101.90;22.33;;;;;;;19.14;47.00;100508.00;4996163;28;20075;-87
2022/09/26 06:26:14;;;;;;;28.08;7.30;;;;;;;19.21;46.76;100496.16;4978064;28;20023;-84
2022/09/26 06:28:40;;;;;;;191.73;33.58;;;;;;;19.03;46.38;100446.56;4984454;28;20066;-87
2022/09/26 06:31:12;;;;;;;197.40;37.33;;;;;;;19.35;46.96;100476.28;4984948;28;20027;-86
2022/09/26 06:33:38;;;;;;;;;;;;;;;19.57;45.76;100506.47;4995643;28;20082;-83
2022/09/26 06:36:05;;;;;;;48.25;9.60;;;;;;;19.64;45.56;100500.06;4992360;28;19914;-87
2022/09/26 06:41:06;;;;;;;37.97;7.75;;;;;;;19.62;45.10;100465.81;4937469;29;20261;-85
2022/09/26 06:43:33;;;;;;;26.33;6.60;;;;;;;19.98;45.00;100499.50;4940472;28;20043;-86
2022/09/26 06:45:59;;;;;;;22.13;6.82;;;;;;;19.97;44.17;100476.81;5071487;23;20059;-94
2022/09/26 06:48:24;;;;;;;39.80;21.45;;;;;;;20.17;43.56;100493.47;4947150;28;20557;-90
2022/09/26 06:50:54;;;;;;;86.50;48.63;;;;;;;20.17;42.38;100493.47;4963424;28;20039;-91
2022/09/26 06:53:20;;;;;;;55.08;35.15;;;;;;;20.21;42.18;100489.34;4965421;28;20031;-91
2022/09/26 06:55:46;;;;;;;14.63;6.53;;;;;;;20.06;42.07;100466.63;4960654;28;20042;-87
2022/09/26 06:58:12;;;;;;;16.33;5.63;;;;;;;20.07;42.33;100450.09;4959069;28;20028;-90
2022/09/26 07:00:38;;;;;;;24.50;6.68;;;;;;;20.28;42.47;100476.63;4957311;28;20027;-92
2022/09/26 07:03:04;;;;;;;95.85;13.20;;;;;;;20.28;42.58;100465.72;4962248;28;20707;-91
2022/09/26 07:05:30;;;;;;;27.63;6.78;;;;;;;20.52;42.38;100489.94;4959556;28;20042;-93
2022/09/26 07:07:56;;;;;;;25.48;6.10;;;;;;;20.59;41.82;100493.63;4956854;28;20038;-83
2022/09/26 07:10:23;;;;;;;21.58;6.82;;;;;;;20.51;42.11;100463.69;4956417;28;20491;-88
2022/09/26 07:12:49;;;;;;;23.85;8.13;;;;;;;20.34;42.65;100440.34;4965751;28;20032;-92
2022/09/26 07:15:17;;;;;;;31.92;9.07;;;;;;;20.51;42.52;100441.81;4959791;28;20039;-91
2022/09/26 07:17:44;;;;;;;17.80;8.73;;;;;;;20.81;42.40;100471.78;4957467;28;20035;-87
2022/09/26 07:20:15;;;;;;;22.33;8.95;;;;;;;20.80;42.40;100461.88;4955337;28;20038;-86
2022/09/26 07:22:45;;;;;;;9.48;5.18;;;;;;;20.81;40.95;100479.97;4955147;28;20464;-84
2022/09/26 07:25:11;;;;;;;10.15;5.18;;;;;;;20.69;40.99;100443.25;4955314;28;20067;-84
2022/09/26 07:27:39;;;;;;;19.30;6.40;;;;;;;20.87;41.28;100480.03;4955093;28;20340;-86
2022/09/26 07:30:06;;;;;;;21.35;6.55;;;;;;;20.98;41.36;100467.72;4955220;28;20133;-85
2022/09/26 07:32:32;;;;;;;24.00;7.18;;;;;;;20.83;41.44;100440.47;4955512;28;20039;-84
2022/09/26 07:34:58;;;;;;;15.40;7.18;;;;;;;21.08;41.32;100470.97;4955747;28;20031;-84
2022/09/26 07:37:24;;;;;;;31.50;7.63;;;;;;;21.13;41.46;100458.44;4956348;28;20463;-85
2022/09/26 07:39:50;;;;;;;44.88;8.55;;;;;;;21.28;41.52;100460.25;4955462;28;20458;-84
2022/09/26 07:42:16;;;;;;;17.63;7.13;;;;;;;21.14;41.43;100423.72;4954841;28;20031;-85
2022/09/26 07:44:43;;;;;;;24.80;7.68;;;;;;;21.38;40.91;100460.75;4955302;28;20117;-86
2022/09/26 07:50:15;;;;;;;25.90;6.45;;;;;;;21.40;40.22;100432.16;4954748;28;20042;-82
2022/09/26 07:52:45;;;;;;;41.63;7.88;;;;;;;21.57;40.00;100455.44;4956230;28;20058;-79
2022/09/26 07:55:14;;;;;;;15.82;6.13;;;;;;;21.58;40.06;100462.59;4954675;28;20035;-80
2022/09/26 07:57:40;;;;;;;48.72;9.18;;;;;;;21.44;39.53;100417.00;4932907;29;20040;-80
2022/09/26 08:00:17;;;;;;;31.88;6.85;;;;;;;21.57;39.44;100428.06;4933978;29;20047;-80
2022/09/26 08:02:45;;;;;;;17.20;6.43;;;;;;;21.85;39.72;100465.50;4944350;29;20047;-83
2022/09/26 08:05:18;;;;;;;15.90;6.03;;;;;;;21.90;39.45;100466.59;4953359;29;20039;-82
2022/09/26 08:07:45;;;;;;;15.73;6.07;;;;;;;21.98;39.29;100451.91;4949647;29;20515;-81
2022/09/26 08:10:18;;;;;;;13.50;5.65;;;;;;;22.00;38.85;100428.75;4936623;29;20097;-79
2022/09/26 08:12:43;;;;;;;49.45;8.57;;;;;;;22.09;39.15;100426.69;4933441;29;20051;-78
2022/09/26 08:15:09;;;;;;;177.68;110.07;;;;;;;22.02;41.51;100426.63;4933305;29;20110;-76
2022/09/26 08:17:34;;;;;;;24.33;11.68;;;;;;;22.15;41.09;100423.13;4933509;29;20087;-79
2022/09/26 08:20:00;;;;;;;89.05;55.78;;;;;;;22.27;41.20;100413.25;4901174;29;20123;-83
2022/09/26 08:22:27;;;;;;;47.20;18.30;;;;;;;22.35;41.16;100421.31;4914267;29;20472;-84
2022/09/26 08:24:54;;;;;;;19.95;11.10;;;;;;;22.22;39.84;100388.38;4913500;29;20032;-78
2022/09/26 08:27:21;;;;;;;14.13;6.13;;;;;;;22.55;39.29;100419.47;4913219;29;20411;-81
2022/09/26 08:29:49;;;;;;;14.55;6.22;;;;;;;22.52;39.51;100406.16;4934301;29;20443;-82
2022/09/26 08:32:16;;;;;;;26.13;6.35;;;;;;;22.65;39.42;100406.22;4912952;29;20037;-80
2022/09/26 08:34:42;;;;;;;20.98;9.93;;;;;;;22.72;39.46;100392.50;4913389;29;20048;-80
2022/09/26 08:37:08;;;;;;;20.48;8.98;;;;;;;22.82;39.82;100406.66;4913442;29;20084;-80
2022/09/26 08:39:34;;;;;;;30.67;14.85;;;;;;;22.59;40.52;100341.25;4913620;29;20042;-81
2022/09/26 08:42:22;;;;;;;35.35;6.55;;;;;;;22.80;41.13;100413.41;4913590;29;20040;-82
2022/09/26 08:46:25;;;;;;;17.17;5.47;;;;;;;22.76;41.09;100411.09;4913878;29;20135;-80
2022/09/26 08:48:02;;;;;;;14.60;4.93;;;;;;;22.55;41.57;100411.22;4920985;29;20138;-79
2022/09/26 08:50:33;;;;;;;8.98;5.07;;;;;;;22.39;42.16;100417.09;4916496;29;20040;-80
2022/09/26 08:53:09;;;;;;;20.10;5.00;;;;;;;22.32;42.65;100393.47;4932592;29;20050;-80
2022/09/26 08:55:40;;;;;;;12.35;5.60;;;;;;;22.08;43.21;100360.09;4915745;29;20046;-80
2022/09/26 08:58:35;;;;;;;14.83;5.33;;;;;;;22.24;43.90;100397.22;4932351;29;20036;-82
2022/09/26 09:01:10;;;;;;;15.07;4.80;;;;;;;22.36;43.83;100398.31;4931704;29;20040;-80
2022/09/26 09:03:52;;;;;;;96.63;55.53;;;;;;;22.44;43.33;100402.78;4945897;28;20074;-82
2022/09/26 09:06:18;;;;;;;51.92;26.00;;;;;;;22.36;43.24;100412.03;4951900;28;20027;-82
2022/09/26 09:08:46;;;;;;;26.80;6.78;;;;;;;22.27;43.87;100374.91;4935476;28;20035;-81
2022/09/26 09:11:44;;;;;;;21.42;6.88;;;;;;;22.67;43.50;100393.16;4953074;28;20027;-80
2022/09/26 09:14:31;;;;;;;34.17;5.75;;;;;;;22.54;43.44;100392.25;4893762;29;20044;-82
2022/09/26 09:17:30;;;;;;;20.52;6.47;;;;;;;22.35;43.76;100352.81;4894178;29;20047;-80
2022/09/26 09:20:19;;;;;;;10.95;5.82;;;;;;;22.59;44.04;100396.06;4893882;29;20149;-80
2022/09/26 09:23:01;;;;;;;18.73;4.57;;;;;;;22.43;43.78;100352.59;4893428;29;20037;-80
2022/09/26 09:25:34;;;;;;;13.50;6.68;;;;;;;22.63;43.96;100360.81;4902936;29;20065;-82
2022/09/26 09:28:20;;;;;;;21.77;4.68;;;;;;;22.66;43.30;100388.72;4914009;29;20069;-84
2022/09/26 09:30:50;;;;;;;30.95;6.15;;;;;;;22.59;43.99;100368.66;4908000;29;20119;-81
2022/09/26 09:33:28;;;;;;;15.25;5.00;;;;;;;22.68;43.84;100383.03;4900658;29;20025;-81
2022/09/26 09:36:06;;;;;;;8.60;4.38;;;;;;;22.83;43.67;100380.09;4896139;29;20084;-79
2022/09/26 09:38:35;;;;;;;18.05;4.63;;;;;;;22.59;44.77;100385.09;4897218;29;20092;-81
2022/09/26 09:41:27;;;;;;;12.32;5.07;;;;;;;22.56;44.55;100366.34;4894343;29;20468;-80
2022/09/26 09:43:55;;;;;;;10.67;4.30;;;;;;;22.61;44.28;100350.09;4898399;29;20056;-80
2022/09/26 09:46:33;;;;;;;13.93;4.47;;;;;;;22.52;43.88;100345.88;4894810;29;20049;-81
2022/09/26 09:49:17;;;;;;;19.83;6.63;;;;;;;22.47;44.12;100326.47;4894465;29;20503;-81
2022/09/26 09:52:09;;;;;;;34.47;14.93;;;;;;;22.74;44.48;100332.84;4939352;28;20039;-79
2022/09/26 09:54:54;;;;;;;61.75;38.22;;;;;;;22.96;44.19;100337.06;4953799;28;20031;-80
2022/09/26 09:58:01;;;;;;;91.95;10.90;;;;;;;23.24;44.17;100334.03;4953742;28;20031;-84
2022/09/26 10:00:27;;;;;;;30.88;6.32;;;;;;;23.22;44.45;100304.09;4952987;28;20082;-80
2022/09/26 10:03:13;;;;;;;45.60;18.10;;;;;;;23.53;44.37;100332.75;4953305;28;20027;-80
2022/09/26 10:05:52;;;;;;;15.50;5.72;;;;;;;23.52;44.64;100304.44;4953664;28;20509;-81
2022/09/26 10:08:26;;;;;;;11.55;6.35;;;;;;;23.82;44.74;100324.00;4953124;28;20423;-82
2022/09/26 10:11:30;;;;;;;15.63;5.32;;;;;;;23.79;46.24;100333.50;4953591;28;20110;-80
2022/09/26 10:14:03;;;;;;;18.63;5.60;;;;;;;23.82;46.32;100330.31;4893999;29;20569;-82
2022/09/26 10:16:30;;;;;;;24.10;5.10;;;;;;;23.91;46.63;100330.91;4894114;29;20044;-82
2022/09/26 10:19:00;;;;;;;28.40;5.13;;;;;;;23.78;46.96;100320.84;4893718;29;20047;-80
2022/09/26 10:21:41;;;;;;;22.45;7.38;;;;;;;23.94;46.97;100335.97;4894008;29;20076;-81
2022/09/26 10:24:33;;;;;;;27.98;11.63;;;;;;;23.96;46.76;100327.50;4893478;29;20055;-80
2022/09/26 10:27:17;;;;;;;21.87;5.57;;;;;;;23.95;46.16;100309.31;4894379;29;20146;-81
2022/09/26 10:29:44;;;;;;;24.38;5.43;;;;;;;24.27;46.00;100327.59;4909668;29;20508;-80
2022/09/26 10:32:10;;;;;;;46.40;5.65;;;;;;;24.35;45.42;100330.06;4893544;29;20127;-81
2022/09/26 10:34:38;;;;;;;76.43;11.25;;;;;;;24.46;45.04;100318.38;4893510;29;20037;-81
2022/09/26 10:37:18;;;;;;;36.58;5.30;;;;;;;24.47;44.96;100309.03;4894049;29;20551;-81
2022/09/26 10:42:36;;;;;;;18.75;4.97;;;;;;;24.63;44.91;100270.00;4895261;29;20056;-81
2022/09/26 10:45:14;;;;;;;6.80;4.20;;;;;;;25.11;44.25;100288.59;4894883;29;20025;-80
2022/09/26 10:47:45;;;;;;;23.58;5.05;;;;;;;25.22;44.33;100296.13;4918976;28;20077;-80
2022/09/26 10:50:16;;;;;;;9.90;4.75;;;;;;;25.21;43.67;100291.69;4965706;28;20087;-82
2022/09/26 10:52:52;;;;;;;14.60;5.18;;;;;;;24.79;44.31;100285.09;4974915;28;20059;-79
2022/09/26 10:55:24;;;;;;;10.88;4.75;;;;;;;24.81;43.40;100267.31;4973549;28;20023;-79
2022/09/26 10:57:56;;;;;;;15.68;5.72;;;;;;;25.00;43.46;100294.88;4972582;28;20038;-81
2022/09/26 11:00:36;;;;;;;17.48;5.47;;;;;;;25.17;42.12;100284.94;4950496;28;20114;-78
2022/09/26 11:03:12;;;;;;;16.27;4.93;;;;;;;24.98;41.12;100283.25;4952914;29;20047;-80
2022/09/26 11:05:58;;;;;;;24.08;5.70;;;;;;;25.08;41.07;100297.31;4952570;29;20042;-82
2022/09/26 11:08:27;;;;;;;43.72;6.85;;;;;;;25.17;40.49;100283.03;4952889;29;20499;-80
2022/09/26 11:10:55;;;;;;;64.53;7.00;;;;;;;25.19;39.99;100280.91;4951779;29;20515;-81
2022/09/26 11:13:24;;;;;;;121.18;13.27;;;;;;;25.26;39.32;100280.81;4953655;29;20036;-84
2022/09/26 11:16:06;;;;;;;413.38;29.52;;;;;;;25.50;39.36;100285.47;4955320;28;20102;-81
2022/09/26 11:18:43;;;;;;;12.02;5.20;;;;;;;25.58;40.61;100296.16;4958900;28;20429;-82
2022/09/26 11:21:27;;;;;;;13.25;5.03;;;;;;;25.58;40.36;100290.66;4957930;28;20027;-81
2022/09/26 11:24:16;;;;;;;13.07;6.85;;;;;;;25.66;40.46;100279.31;4959386;28;20046;-81
2022/09/26 11:26:48;;;;;;;56.20;17.45;;;;;;;25.72;40.63;100278.38;4960231;28;20138;-80
2022/09/26 11:29:29;;;;;;;84.10;29.85;;;;;;;25.76;40.46;100276.84;4970862;28;20041;-80
2022/09/26 11:31:55;;;;;;;54.20;21.73;;;;;;;25.81;41.20;100265.97;4974114;28;20031;-81
2022/09/26 11:34:27;;;;;;;50.58;20.33;;;;;;;25.78;41.20;100269.19;4973965;28;20037;-80
2022/09/26 11:37:03;;;;;;;52.97;25.02;;;;;;;25.64;42.50;100240.16;4974241;28;20030;-81
2022/09/26 11:39:31;;;;;;;27.48;14.38;;;;;;;25.58;42.77;100245.72;4974244;28;20098;-79
2022/09/26 11:42:31;;;;;;;12.65;6.20;;;;;;;25.70;42.86;100230.94;4973212;28;20074;-80
2022/09/26 11:45:03;;;;;;;21.98;4.63;;;;;;;25.53;43.47;100246.44;4969925;28;20046;-79
2022/09/26 11:47:50;;;;;;;18.90;6.22;;;;;;;25.45;44.68;100247.56;4972991;28;20058;-79
2022/09/26 11:50:38;;;;;;;13.55;4.95;;;;;;;25.30;45.43;100244.34;4972580;28;20089;-80
2022/09/26 11:53:20;;;;;;;12.65;4.38;;;;;;;25.26;45.28;100237.59;4972152;28;20035;-81